createdAt,value
2018-08-18T00:01:13.761Z,75.63
2018-08-18T00:03:41.864Z,74.93
2018-08-18T00:21:39.436Z,75.83
2018-08-18T00:24:09.584Z,75.25
2018-08-18T00:26:39.008Z,75.67
2018-08-18T00:29:08.870Z,75.30
2018-08-18T00:31:39.243Z,74.57
2018-08-18T00:34:07.863Z,75.25
2018-08-18T00:36:46.692Z,75.32
2018-08-18T00:39:15.091Z,75.46
2018-08-18T00:41:44.070Z,75.54
2018-08-18T00:44:12.265Z,75.42
2018-08-18T00:46:41.519Z,74.73
2018-08-18T00:49:09.922Z,75.04
2018-08-18T00:51:42.427Z,74.85
2018-08-18T00:54:10.853Z,74.53
2018-08-18T00:56:41.320Z,74.91
2018-08-18T00:59:11.231Z,74.71
2018-08-18T01:01:39.413Z,74.93
2018-08-18T01:04:09.132Z,75.13
2018-08-18T01:06:41.233Z,74.75
2018-08-18T01:09:10.888Z,74.72
2018-08-18T01:11:39.291Z,74.87
2018-08-18T01:14:16.586Z,74.62
2018-08-18T01:16:50.469Z,74.81
2018-08-18T01:19:20.621Z,74.41
2018-08-18T01:21:54.949Z,74.61
2018-08-18T01:24:23.196Z,75.12
2018-08-18T01:26:51.469Z,74.89
2018-08-18T01:29:20.064Z,75.32
2018-08-18T01:31:48.327Z,74.99
2018-08-18T01:34:16.474Z,75.18
2018-08-18T01:36:44.752Z,76.09
2018-08-18T01:39:14.060Z,76.34
2018-08-18T01:41:42.253Z,75.89
2018-08-18T01:44:15.219Z,75.97
2018-08-18T01:46:44.457Z,75.96
2018-08-18T01:49:37.205Z,75.25
2018-08-18T01:52:12.332Z,76.56
2018-08-18T01:54:40.604Z,76.94
2018-08-18T01:57:11.566Z,76.42
2018-08-18T01:59:41.855Z,75.90
2018-08-18T02:02:13.082Z,76.53
2018-08-18T02:04:41.701Z,77.20
2018-08-18T02:07:17.270Z,76.79
2018-08-18T02:09:45.617Z,77.05
2018-08-18T02:12:14.150Z,77.10
2018-08-18T02:14:42.531Z,76.81
2018-08-18T02:17:28.340Z,77.12
2018-08-18T02:20:00.771Z,77.35
2018-08-18T02:31:37.147Z,77.72
2018-08-18T02:34:06.080Z,78.38
2018-08-18T02:36:35.231Z,77.69
2018-08-18T02:39:04.097Z,78.30
2018-08-18T02:41:33.322Z,79.29
2018-08-18T02:44:01.908Z,79.18
2018-08-18T02:46:33.409Z,79.05
2018-08-18T02:49:02.614Z,79.74
2018-08-18T02:51:31.448Z,78.63
2018-08-18T02:54:00.622Z,79.31
2018-08-18T02:56:34.179Z,79.93
2018-08-18T02:59:04.704Z,80.22
2018-08-18T03:01:43.053Z,79.70
2018-08-18T03:04:12.936Z,80.09
2018-08-18T03:06:41.723Z,80.79
2018-08-18T03:09:11.111Z,80.59
2018-08-18T03:11:43.408Z,81.42
2018-08-18T03:14:11.706Z,81.11
2018-08-18T03:16:41.826Z,80.94
2018-08-18T03:19:13.485Z,80.85
2018-08-18T03:21:42.875Z,80.78
2018-08-18T03:24:17.395Z,81.58
2018-08-18T03:26:49.154Z,82.03
2018-08-18T03:29:18.203Z,82.26
2018-08-18T03:31:46.718Z,81.83
2018-08-18T03:37:36.641Z,82.12
2018-08-18T03:40:05.955Z,82.00
2018-08-18T03:42:39.700Z,81.60
2018-08-18T03:45:08.964Z,82.00
2018-08-18T03:47:38.142Z,81.79
2018-08-18T03:50:06.458Z,82.13
2018-08-18T03:52:34.637Z,81.25
2018-08-18T03:57:55.504Z,81.61
2018-08-18T04:03:09.241Z,81.97
2018-08-18T04:33:03.975Z,83.51
2018-08-18T04:35:33.042Z,83.68
2018-08-18T04:38:02.374Z,83.49
2018-08-18T04:40:30.950Z,84.46
2018-08-18T04:43:00.361Z,84.04
2018-08-18T04:45:29.278Z,83.94
2018-08-18T04:53:50.674Z,82.80
2018-08-18T04:56:19.766Z,82.92
2018-08-18T04:58:48.037Z,82.43
2018-08-18T05:01:16.261Z,81.68
2018-08-18T05:04:00.662Z,81.54
2018-08-18T05:06:30.016Z,81.61
2018-08-18T05:08:59.378Z,81.05
2018-08-18T05:11:28.407Z,79.97
2018-08-18T05:13:56.767Z,80.09
2018-08-18T05:16:25.940Z,80.16
2018-08-18T05:18:54.543Z,80.65
2018-08-18T05:21:27.744Z,80.20
2018-08-18T05:23:56.279Z,79.89
2018-08-18T05:26:24.420Z,79.76
2018-08-18T05:28:52.544Z,78.96
2018-08-18T05:31:21.963Z,79.38
2018-08-18T05:33:50.980Z,78.11
2018-08-18T05:36:19.118Z,78.18
2018-08-18T05:38:47.625Z,78.87
2018-08-18T05:41:15.782Z,78.61
2018-08-18T05:43:43.979Z,78.21
2018-08-18T05:46:12.118Z,78.17
2018-08-18T05:48:40.242Z,78.36
2018-08-18T05:51:08.358Z,78.87
2018-08-18T05:53:36.722Z,77.94
2018-08-18T05:56:06.088Z,77.47
2018-08-18T05:58:51.303Z,76.83
2018-08-18T06:01:26.573Z,75.48
2018-08-18T06:04:00.461Z,71.14
2018-08-18T06:06:28.635Z,68.69
2018-08-18T06:08:57.781Z,67.05
2018-08-18T06:11:25.923Z,66.00
2018-08-18T06:13:55.023Z,65.31
2018-08-18T06:16:23.148Z,66.06
2018-08-18T06:18:51.707Z,65.22
2018-08-18T06:21:20.327Z,64.05
2018-08-18T06:23:48.684Z,63.16
2018-08-18T06:26:17.605Z,66.77
2018-08-18T06:28:46.223Z,67.84
2018-08-18T06:31:15.200Z,68.35
2018-08-18T06:33:43.416Z,69.04
2018-08-18T06:36:11.722Z,68.82
2018-08-18T06:41:20.069Z,69.93
2018-08-18T06:43:48.120Z,68.59
2018-08-18T06:46:16.278Z,68.70
2018-08-18T06:48:44.728Z,69.90
2018-08-18T06:51:12.873Z,69.17
2018-08-18T06:53:44.089Z,68.51
2018-08-18T06:56:12.337Z,69.56
2018-08-18T06:58:40.544Z,68.83
2018-08-18T07:01:09.216Z,68.91
2018-08-18T07:03:41.086Z,68.96
2018-08-18T07:06:11.531Z,68.97
2018-08-18T07:08:44.923Z,68.27
2018-08-18T07:11:13.071Z,67.66
2018-08-18T07:13:42.489Z,67.94
2018-08-18T07:16:10.661Z,67.86
2018-08-18T07:18:38.864Z,67.51
2018-08-18T07:21:07.209Z,67.59
2018-08-18T07:23:35.826Z,67.13
2018-08-18T07:26:04.048Z,67.07
2018-08-18T07:28:32.201Z,66.21
2018-08-18T07:31:00.348Z,66.45
2018-08-18T07:33:28.595Z,66.04
2018-08-18T07:35:57.696Z,67.42
2018-08-18T07:38:26.146Z,66.80
2018-08-18T07:40:54.984Z,66.52
2018-08-18T07:43:33.855Z,66.18
2018-08-18T07:46:03.607Z,65.99
2018-08-18T07:48:32.363Z,66.39
2018-08-18T07:51:00.522Z,66.21
2018-08-18T07:53:28.751Z,65.95
2018-08-18T07:55:56.850Z,65.40
2018-08-18T07:58:25.508Z,64.97
2018-08-18T08:00:56.463Z,65.21
2018-08-18T08:03:24.621Z,64.58
2018-08-18T08:05:52.743Z,64.68
2018-08-18T08:08:20.936Z,64.58
2018-08-18T08:10:49.677Z,63.70
2018-08-18T08:13:17.843Z,64.21
2018-08-18T08:15:45.960Z,62.82
2018-08-18T08:18:15.369Z,62.74
2018-08-18T08:20:43.498Z,62.25
2018-08-18T08:23:11.653Z,62.72
2018-08-18T08:25:39.965Z,63.04
2018-08-18T08:28:08.586Z,62.19
2018-08-18T08:30:37.331Z,62.43
2018-08-18T08:33:05.488Z,61.27
2018-08-18T08:35:36.823Z,61.63
2018-08-18T08:38:04.984Z,61.30
2018-08-18T08:40:33.192Z,61.43
2018-08-18T08:43:01.327Z,60.49
2018-08-18T08:45:29.732Z,60.30
2018-08-18T08:47:59.603Z,61.13
2018-08-18T08:50:27.735Z,61.08
2018-08-18T08:52:56.950Z,60.53
2018-08-18T08:55:28.589Z,59.52
2018-08-18T08:57:56.757Z,60.76
2018-08-18T09:00:24.934Z,60.04
2018-08-18T09:02:53.203Z,61.76
2018-08-18T09:05:22.438Z,61.31
2018-08-18T09:07:50.809Z,61.46
2018-08-18T09:10:19.062Z,59.91
2018-08-18T09:12:47.140Z,58.97
2018-08-18T09:15:17.872Z,59.42
2018-08-18T09:17:45.983Z,58.82
2018-08-18T09:20:17.257Z,58.84
2018-08-18T09:22:51.808Z,58.04
2018-08-18T09:25:20.096Z,58.73
2018-08-18T09:27:53.461Z,58.78
2018-08-18T09:30:22.090Z,58.75
2018-08-18T09:32:50.564Z,58.37
2018-08-18T09:35:18.832Z,58.39
2018-08-18T09:37:52.206Z,58.94
2018-08-18T09:40:20.405Z,58.00
2018-08-18T09:42:48.612Z,57.92
2018-08-18T09:45:16.806Z,58.07
2018-08-18T09:47:44.905Z,56.64
2018-08-18T09:50:13.182Z,55.88
2018-08-18T09:52:41.378Z,55.75
2018-08-18T09:55:10.777Z,55.76
2018-08-18T09:57:38.999Z,55.83
2018-08-18T10:00:10.825Z,55.03
2018-08-18T10:02:38.944Z,55.53
2018-08-18T10:05:07.139Z,54.97
2018-08-18T10:07:35.315Z,54.97
2018-08-18T10:10:03.627Z,53.85
2018-08-18T10:12:31.746Z,54.23
2018-08-18T10:14:59.893Z,54.11
2018-08-18T10:17:28.114Z,54.71
2018-08-18T10:19:56.315Z,54.72
2018-08-18T10:22:24.577Z,54.30
2018-08-18T10:24:52.695Z,53.93
2018-08-18T10:27:20.982Z,53.73
2018-08-18T10:29:49.278Z,53.77
2018-08-18T10:32:17.422Z,53.97
2018-08-18T10:34:45.616Z,53.43
2018-08-18T10:37:14.931Z,53.15
2018-08-18T10:39:43.145Z,53.75
2018-08-18T10:42:15.995Z,52.62
2018-08-18T10:44:50.538Z,52.42
2018-08-18T10:47:19.966Z,52.26
2018-08-18T10:49:59.604Z,52.00
2018-08-18T10:52:39.874Z,52.08
2018-08-18T10:55:10.201Z,50.66
2018-08-18T10:57:50.584Z,51.47
2018-08-18T11:00:20.229Z,49.72
2018-08-18T11:02:49.766Z,49.68
2018-08-18T11:05:18.472Z,49.70
2018-08-18T11:07:53.912Z,50.29
2018-08-18T11:10:23.035Z,49.74
2018-08-18T11:12:51.269Z,51.29
2018-08-18T11:15:20.410Z,50.49
2018-08-18T11:17:48.535Z,51.32
2018-08-18T11:20:19.204Z,49.59
2018-08-18T11:22:59.667Z,50.44
2018-08-18T11:25:30.997Z,49.26
2018-08-18T11:27:59.682Z,48.90
2018-08-18T11:30:28.021Z,48.95
2018-08-18T11:32:57.306Z,47.74
2018-08-18T11:35:26.476Z,48.64
2018-08-18T11:37:57.636Z,47.65
2018-08-18T11:40:27.724Z,47.67
2018-08-18T11:42:59.128Z,47.21
2018-08-18T11:45:28.299Z,47.94
2018-08-18T11:48:06.072Z,48.02
2018-08-18T11:50:34.324Z,47.48
2018-08-18T11:53:03.438Z,46.28
2018-08-18T11:55:31.640Z,46.60
2018-08-18T11:58:03.350Z,45.80
2018-08-18T12:00:33.923Z,45.91
2018-08-18T12:03:09.676Z,45.08
2018-08-18T12:05:44.259Z,45.18
2018-08-18T12:08:13.349Z,46.10
2018-08-18T12:10:41.579Z,45.71
2018-08-18T12:13:09.664Z,45.47
2018-08-18T12:15:54.644Z,45.86
2018-08-18T12:18:24.130Z,44.43
2018-08-18T12:20:54.319Z,44.73
2018-08-18T12:23:22.429Z,44.96
2018-08-18T12:25:56.020Z,44.56
2018-08-18T12:28:30.422Z,45.01
2018-08-18T12:30:59.183Z,44.77
2018-08-18T12:33:27.936Z,45.52
2018-08-18T12:35:56.076Z,44.79
2018-08-18T12:38:24.442Z,45.38
2018-08-18T12:40:52.879Z,43.96
2018-08-18T12:43:29.152Z,43.96
2018-08-18T12:45:58.351Z,43.59
2018-08-18T12:48:26.473Z,42.93
2018-08-18T12:50:54.599Z,43.46
2018-08-18T12:53:22.724Z,44.16
2018-08-18T12:56:06.616Z,42.37
2018-08-18T12:58:34.880Z,42.80
2018-08-18T13:01:03.185Z,43.10
2018-08-18T13:03:31.823Z,43.86
2018-08-18T13:06:00.089Z,43.41
2018-08-18T13:08:29.081Z,43.46
2018-08-18T13:10:57.207Z,42.04
2018-08-18T13:13:25.396Z,43.27
2018-08-18T13:15:54.964Z,42.59
2018-08-18T13:18:23.313Z,42.28
2018-08-18T13:20:53.003Z,41.93
2018-08-18T13:23:23.481Z,42.19
2018-08-18T13:25:52.255Z,41.52
2018-08-18T13:28:20.455Z,42.73
2018-08-18T13:30:48.578Z,42.59
2018-08-18T13:33:16.729Z,41.30
2018-08-18T13:35:44.922Z,42.08
2018-08-18T13:38:26.425Z,41.33
2018-08-18T13:40:55.041Z,41.13
2018-08-18T13:43:55.417Z,40.41
2018-08-18T13:46:35.036Z,40.70
2018-08-18T13:49:07.227Z,40.78
2018-08-18T13:51:36.387Z,41.72
2018-08-18T13:54:04.732Z,41.37
2018-08-18T13:56:33.200Z,40.54
2018-08-18T13:59:01.414Z,41.54
2018-08-18T14:01:36.618Z,40.73
2018-08-18T14:04:05.415Z,40.86
2018-08-18T14:06:38.791Z,40.80
2018-08-18T14:09:07.347Z,40.84
2018-08-18T14:11:35.536Z,40.88
2018-08-18T14:14:03.809Z,40.78
2018-08-18T14:16:32.426Z,40.40
2018-08-18T14:19:00.857Z,41.29
2018-08-18T14:21:29.252Z,42.23
2018-08-18T14:23:57.533Z,39.84
2018-08-18T14:26:25.942Z,40.21
2018-08-18T14:28:54.112Z,39.52
2018-08-18T14:31:23.326Z,40.03
2018-08-18T14:33:51.485Z,39.58
2018-08-18T14:36:19.616Z,38.87
2018-08-18T14:38:47.908Z,39.18
2018-08-18T14:41:21.177Z,38.94
2018-08-18T14:43:49.376Z,39.30
2018-08-18T14:46:17.721Z,40.40
2018-08-18T14:48:45.863Z,40.38
2018-08-18T14:51:14.052Z,39.66
2018-08-18T14:53:42.960Z,39.67
2018-08-18T14:56:11.117Z,40.54
2018-08-18T14:58:42.715Z,40.96
2018-08-18T15:01:12.938Z,40.56
2018-08-18T15:03:42.461Z,40.91
2018-08-18T15:06:11.396Z,41.16
2018-08-18T15:08:39.517Z,41.34
2018-08-18T15:11:07.963Z,40.06
2018-08-18T15:13:36.583Z,40.48
2018-08-18T15:16:04.765Z,39.95
2018-08-18T15:18:33.359Z,40.67
2018-08-18T15:21:01.876Z,41.37
2018-08-18T15:23:29.950Z,40.81
2018-08-18T15:25:58.164Z,40.44
2018-08-18T15:28:28.044Z,40.00
2018-08-18T15:30:56.178Z,40.70
2018-08-18T15:33:25.723Z,41.11
2018-08-18T15:35:53.837Z,40.69
2018-08-18T15:38:40.372Z,40.67
2018-08-18T15:41:08.710Z,40.77
2018-08-18T15:43:36.854Z,42.20
2018-08-18T15:46:06.057Z,41.21
2018-08-18T15:48:34.940Z,40.56
2018-08-18T15:51:03.045Z,39.94
2018-08-18T15:53:55.524Z,40.71
2018-08-18T15:56:24.435Z,40.53
2018-08-18T15:58:53.441Z,40.90
2018-08-18T16:01:21.930Z,41.14
2018-08-18T16:03:50.412Z,40.96
2018-08-18T16:06:18.881Z,41.56
2018-08-18T16:08:46.989Z,41.17
2018-08-18T16:11:15.642Z,41.24
2018-08-18T16:13:43.802Z,41.20
2018-08-18T16:16:12.802Z,41.28
2018-08-18T16:18:41.189Z,40.55
2018-08-18T16:21:17.913Z,40.89
2018-08-18T16:23:46.164Z,41.14
2018-08-18T16:26:14.309Z,41.22
2018-08-18T16:28:42.987Z,41.17
2018-08-18T16:31:11.615Z,41.54
2018-08-18T16:33:40.103Z,42.18
2018-08-18T16:36:09.332Z,42.52
2018-08-18T16:38:37.617Z,43.17
2018-08-18T16:41:06.396Z,42.25
2018-08-18T16:43:36.372Z,43.69
2018-08-18T16:46:32.243Z,43.32
2018-08-18T16:49:00.837Z,43.52
2018-08-18T16:51:29.788Z,42.98
2018-08-18T16:54:12.188Z,42.75
2018-08-18T16:56:40.382Z,44.10
2018-08-18T16:59:08.535Z,44.32
2018-08-18T17:01:37.170Z,43.82
2018-08-18T17:04:05.622Z,44.45
2018-08-18T17:06:33.795Z,45.04
2018-08-18T17:09:01.959Z,44.77
2018-08-18T17:11:30.957Z,44.04
2018-08-18T17:13:59.715Z,44.36
2018-08-18T17:16:27.959Z,45.23
2018-08-18T17:18:56.281Z,44.18
2018-08-18T17:21:24.949Z,45.06
2018-08-18T17:23:53.160Z,45.45
2018-08-18T17:26:21.659Z,45.89
2018-08-18T17:28:49.804Z,45.68
2018-08-18T17:31:17.982Z,46.15
2018-08-18T17:33:46.237Z,46.00
2018-08-18T17:36:14.456Z,46.02
2018-08-18T17:38:42.777Z,46.98
2018-08-18T17:41:10.892Z,47.57
2018-08-18T17:43:39.804Z,48.11
2018-08-18T17:46:08.838Z,47.69
2018-08-18T17:48:42.347Z,48.07
2018-08-18T17:51:11.468Z,48.44
2018-08-18T17:53:54.802Z,48.76
2018-08-18T17:56:22.992Z,48.86
2018-08-18T17:58:51.165Z,48.99
2018-08-18T18:01:19.606Z,49.29
2018-08-18T18:03:47.831Z,50.21
2018-08-18T18:06:15.999Z,50.32
2018-08-18T18:08:44.104Z,50.06
2018-08-18T18:11:12.239Z,50.18
2018-08-18T18:13:40.376Z,51.05
2018-08-18T18:16:42.146Z,51.37
2018-08-18T18:19:10.288Z,51.86
2018-08-18T18:21:38.985Z,51.88
2018-08-18T18:24:07.281Z,52.28
2018-08-18T18:26:35.384Z,52.64
2018-08-18T18:29:03.506Z,52.37
2018-08-18T18:31:31.715Z,52.34
2018-08-18T18:34:03.592Z,52.77
2018-08-18T18:36:32.772Z,53.05
2018-08-18T18:39:00.948Z,53.38
2018-08-18T18:41:29.087Z,53.38
2018-08-18T18:43:59.204Z,53.52
2018-08-18T18:46:27.703Z,53.89
2018-08-18T18:48:56.206Z,54.12
2018-08-18T18:51:24.391Z,54.75
2018-08-18T18:53:53.583Z,54.40
2018-08-18T18:56:21.854Z,54.51
2018-08-18T18:58:50.027Z,54.73
2018-08-18T19:01:19.851Z,54.69
2018-08-18T19:03:48.421Z,55.25
2018-08-18T19:06:16.637Z,55.05
2018-08-18T19:08:58.091Z,55.47
2018-08-18T19:11:26.898Z,55.30
2018-08-18T19:13:55.072Z,56.11
2018-08-18T19:16:23.278Z,56.20
2018-08-18T19:18:51.384Z,56.93
2018-08-18T19:21:19.489Z,57.05
2018-08-18T19:23:47.646Z,57.37
2018-08-18T19:26:15.821Z,58.39
2018-08-18T19:28:43.963Z,58.77
2018-08-18T19:31:12.105Z,58.98
2018-08-18T19:33:40.237Z,59.14
2018-08-18T19:36:08.431Z,59.69
2018-08-18T19:38:36.595Z,59.55
2018-08-18T19:41:05.067Z,60.10
2018-08-18T19:43:33.227Z,59.72
2018-08-18T19:46:01.366Z,59.18
2018-08-18T19:48:29.489Z,59.39
2018-08-18T19:51:03.061Z,59.96
2018-08-18T19:53:33.498Z,60.28
2018-08-18T19:56:02.328Z,60.01
2018-08-18T19:58:30.893Z,60.55
2018-08-18T20:00:59.031Z,60.72
2018-08-18T20:03:27.464Z,60.28
2018-08-18T20:05:55.609Z,59.94
2018-08-18T20:08:25.651Z,60.54
2018-08-18T20:10:55.364Z,60.20
2018-08-18T20:13:24.669Z,59.78
2018-08-18T20:15:54.167Z,59.79
2018-08-18T20:18:23.243Z,59.87
2018-08-18T20:20:52.337Z,59.62
2018-08-18T20:23:21.264Z,59.90
2018-08-18T20:25:49.948Z,59.77
2018-08-18T20:28:18.167Z,59.59
2018-08-18T20:30:46.978Z,59.91
2018-08-18T20:33:15.483Z,59.32
2018-08-18T20:35:43.675Z,59.02
2018-08-18T20:38:11.817Z,59.30
2018-08-18T20:40:39.991Z,59.56
2018-08-18T20:43:08.160Z,58.90
2018-08-18T20:45:41.685Z,58.76
2018-08-18T20:48:10.467Z,59.35
2018-08-18T20:50:38.652Z,58.99
2018-08-18T20:53:11.851Z,59.35
2018-08-18T20:55:40.737Z,59.20
2018-08-18T20:58:08.863Z,59.27
2018-08-18T21:00:36.963Z,58.96
2018-08-18T21:03:05.136Z,59.45
2018-08-18T21:05:33.951Z,59.51
2018-08-18T21:08:07.648Z,60.32
2018-08-18T21:10:36.205Z,60.20
2018-08-18T21:13:04.340Z,59.90
2018-08-18T21:15:32.449Z,59.77
2018-08-18T21:18:05.675Z,59.90
2018-08-18T21:20:34.951Z,60.23
2018-08-18T21:23:03.221Z,59.93
2018-08-18T21:25:48.256Z,59.92
2018-08-18T21:28:17.620Z,59.44
2018-08-18T21:30:46.053Z,60.27
2018-08-18T21:33:14.383Z,59.94
2018-08-18T21:35:42.789Z,60.30
2018-08-18T21:38:11.351Z,61.04
2018-08-18T21:40:39.572Z,60.14
2018-08-18T21:43:18.903Z,60.43
2018-08-18T21:45:47.059Z,59.48
2018-08-18T21:48:15.574Z,59.80
2018-08-18T21:50:44.459Z,59.27
2018-08-18T21:53:14.137Z,59.01
2018-08-18T21:55:42.539Z,59.85
2018-08-18T21:58:10.852Z,59.74
2018-08-18T22:02:44.470Z,59.98
2018-08-18T22:05:13.898Z,60.34
2018-08-18T22:07:47.353Z,60.55
2018-08-18T22:10:15.512Z,60.19
2018-08-18T22:12:43.643Z,60.77
2018-08-18T22:15:18.728Z,60.39
2018-08-18T22:17:47.794Z,60.70
2018-08-18T22:20:17.440Z,60.30
2018-08-18T22:22:46.645Z,60.63
2018-08-18T22:25:15.584Z,60.06
2018-08-18T22:27:44.715Z,60.48
2018-08-18T22:30:15.733Z,60.36
2018-08-18T22:32:44.942Z,60.78
2018-08-18T22:35:13.714Z,59.92
2018-08-18T22:37:42.204Z,60.97
2018-08-18T22:40:11.184Z,58.79
2018-08-18T22:42:39.463Z,58.59
2018-08-18T22:45:18.912Z,58.84
2018-08-18T22:47:47.038Z,58.83
2018-08-18T22:50:15.687Z,58.50
2018-08-18T22:52:47.362Z,58.29
2018-08-18T22:55:15.599Z,57.96
2018-08-18T22:57:47.898Z,57.95
2018-08-18T23:00:16.072Z,57.95
2018-08-18T23:02:44.591Z,58.22
2018-08-18T23:05:12.779Z,58.01
2018-08-18T23:07:49.221Z,58.09
2018-08-18T23:10:17.656Z,59.43
2018-08-18T23:12:45.807Z,59.59
2018-08-18T23:15:13.919Z,59.96
2018-08-18T23:17:42.075Z,59.93
2018-08-18T23:20:10.267Z,60.62
2018-08-18T23:22:52.762Z,61.12
2018-08-18T23:25:21.391Z,60.81
2018-08-18T23:27:49.631Z,61.66
2018-08-18T23:30:34.195Z,61.85
2018-08-18T23:33:04.898Z,62.52
2018-08-18T23:35:33.003Z,62.07
2018-08-18T23:38:01.259Z,62.35
2018-08-18T23:40:29.509Z,63.00
2018-08-18T23:42:58.183Z,63.22
2018-08-18T23:45:36.967Z,63.16
2018-08-18T23:48:08.513Z,62.70
2018-08-18T23:50:37.603Z,62.30
2018-08-18T23:53:07.659Z,62.96
2018-08-18T23:55:39.079Z,63.23
2018-08-18T23:58:07.211Z,63.58
